createdAt,value
2022-08-03T00:00:54.057Z,5.40
2022-08-03T00:06:04.197Z,4.60
2022-08-03T00:11:07.969Z,4.40
2022-08-03T00:16:10.972Z,4.70
2022-08-03T00:26:18.563Z,4.40
2022-08-03T00:31:26.490Z,4.10
2022-08-03T00:36:44.000Z,5.00
2022-08-03T00:41:46.687Z,5.10
2022-08-03T00:46:49.394Z,5.70
2022-08-03T00:51:52.618Z,4.90
2022-08-03T00:56:59.546Z,4.50
2022-08-03T01:02:03.381Z,4.60
2022-08-03T01:07:19.224Z,4.10
2022-08-03T01:12:27.670Z,4.20
2022-08-03T01:17:57.573Z,4.50
2022-08-03T01:23:28.945Z,4.10
2022-08-03T01:28:50.324Z,4.10
2022-08-03T01:33:59.512Z,4.50
2022-08-03T01:39:05.110Z,5.00
2022-08-03T01:44:29.665Z,4.60
2022-08-03T01:49:38.712Z,4.60
2022-08-03T01:54:45.418Z,4.80
2022-08-03T01:59:50.618Z,4.50
2022-08-03T02:04:56.834Z,4.60
2022-08-03T02:10:02.833Z,5.00
2022-08-03T02:15:07.498Z,5.00
2022-08-03T02:20:12.890Z,4.00
2022-08-03T02:25:16.365Z,4.40
2022-08-03T02:30:20.722Z,4.60
2022-08-03T02:35:26.483Z,4.70
2022-08-03T02:40:31.494Z,4.20
2022-08-03T02:45:45.119Z,3.80
2022-08-03T02:50:51.509Z,4.60
2022-08-03T02:55:56.869Z,4.10
2022-08-03T03:01:02.039Z,5.50
2022-08-03T03:06:05.874Z,4.30
2022-08-03T03:11:10.518Z,4.60
2022-08-03T03:16:15.558Z,3.80
2022-08-03T03:21:20.169Z,3.90
2022-08-03T03:26:23.014Z,4.90
2022-08-03T03:31:25.835Z,4.00
2022-08-03T03:36:28.614Z,4.20
2022-08-03T03:41:31.623Z,3.70
2022-08-03T03:46:38.901Z,3.80
2022-08-03T03:51:41.677Z,4.50
2022-08-03T03:56:45.227Z,4.10
2022-08-03T04:01:47.948Z,3.80
2022-08-03T04:07:20.516Z,3.90
2022-08-03T04:12:26.511Z,4.80
2022-08-03T04:17:31.126Z,4.30
2022-08-03T04:22:35.065Z,4.00
2022-08-03T04:27:40.698Z,3.90
2022-08-03T04:32:46.017Z,4.30
2022-08-03T04:37:51.860Z,3.80
2022-08-03T04:42:56.324Z,3.70
2022-08-03T04:47:59.903Z,4.80
2022-08-03T04:53:07.180Z,4.40
2022-08-03T04:58:10.527Z,4.30
2022-08-03T05:03:23.935Z,3.60
2022-08-03T05:08:28.407Z,3.80
2022-08-03T05:13:31.353Z,4.50
2022-08-03T05:18:34.334Z,4.50
2022-08-03T05:23:38.050Z,4.00
2022-08-03T05:28:40.914Z,4.10
2022-08-03T05:33:54.755Z,4.60
2022-08-03T05:39:02.467Z,4.20
2022-08-03T05:44:06.096Z,4.50
2022-08-03T05:49:08.864Z,4.90
2022-08-03T05:54:12.210Z,3.90
2022-08-03T05:59:37.103Z,4.30
2022-08-03T06:10:34.957Z,4.30
2022-08-03T06:15:05.306Z,4.10
2022-08-03T06:20:11.622Z,3.70
2022-08-03T06:25:14.598Z,3.90
2022-08-03T06:30:21.073Z,4.40
2022-08-03T06:35:24.604Z,3.90
2022-08-03T06:40:31.472Z,3.90
2022-08-03T06:45:35.472Z,3.80
2022-08-03T06:50:45.257Z,4.00
2022-08-03T06:55:52.425Z,3.80
2022-08-03T07:00:57.198Z,3.50
2022-08-03T07:06:00.124Z,3.40
2022-08-03T07:11:02.921Z,3.30
2022-08-03T07:16:07.106Z,3.60
2022-08-03T07:21:11.063Z,3.60
2022-08-03T07:26:13.905Z,3.40
2022-08-03T07:31:16.806Z,3.50
2022-08-03T07:36:19.722Z,4.50
2022-08-03T07:41:22.445Z,4.10
2022-08-03T07:46:25.292Z,4.50
2022-08-03T07:51:29.868Z,4.80
2022-08-03T07:56:32.681Z,5.10
2022-08-03T08:01:38.053Z,4.00
2022-08-03T08:06:40.894Z,4.00
2022-08-03T08:11:43.603Z,5.10
2022-08-03T08:16:47.889Z,5.90
2022-08-03T08:21:53.754Z,3.30
2022-08-03T08:27:05.846Z,3.20
2022-08-03T08:32:09.106Z,3.10
2022-08-03T08:37:12.061Z,3.00
2022-08-03T08:42:15.898Z,3.50
2022-08-03T08:47:22.070Z,2.90
2022-08-03T08:52:29.712Z,3.10
2022-08-03T08:57:43.138Z,3.40
2022-08-03T09:02:47.127Z,3.30
2022-08-03T09:07:50.253Z,3.30
2022-08-03T09:12:53.309Z,3.30
2022-08-03T09:17:58.421Z,3.10
2022-08-03T09:23:19.053Z,3.30
2022-08-03T09:29:01.755Z,3.10
2022-08-03T09:34:01.286Z,3.60
2022-08-03T09:39:06.909Z,3.80
2022-08-03T09:44:24.267Z,3.50
2022-08-03T09:49:28.828Z,3.20
2022-08-03T09:54:32.765Z,3.30
2022-08-03T09:59:36.020Z,3.30
2022-08-03T10:04:52.756Z,3.20
2022-08-03T10:16:22.592Z,3.00
2022-08-03T10:20:50.272Z,3.20
2022-08-03T10:26:01.934Z,3.20
2022-08-03T10:31:07.833Z,3.30
2022-08-03T10:36:12.645Z,3.30
2022-08-03T10:41:18.322Z,3.50
2022-08-03T10:46:21.604Z,3.20
2022-08-03T10:51:25.055Z,3.80
2022-08-03T10:56:52.407Z,3.70
2022-08-03T11:02:00.876Z,3.20
2022-08-03T11:07:16.927Z,3.30
2022-08-03T11:12:30.423Z,3.50
2022-08-03T11:17:46.561Z,3.40
2022-08-03T11:23:01.140Z,2.90
2022-08-03T11:28:28.281Z,3.40
2022-08-03T11:33:31.876Z,3.20
2022-08-03T11:38:34.684Z,3.40
2022-08-03T11:43:41.944Z,3.50
2022-08-03T11:48:59.211Z,3.20
2022-08-03T11:54:04.902Z,3.30
2022-08-03T11:59:20.690Z,3.20
2022-08-03T12:04:24.738Z,3.40
2022-08-03T12:09:27.520Z,3.20
2022-08-03T12:14:48.940Z,3.00
2022-08-03T12:19:53.213Z,3.40
2022-08-03T12:24:55.908Z,3.10
2022-08-03T12:29:59.983Z,3.50
2022-08-03T12:35:05.992Z,3.20
2022-08-03T12:40:13.263Z,4.00
2022-08-03T12:45:28.162Z,3.30
2022-08-03T12:50:36.305Z,2.60
2022-08-03T12:55:40.157Z,3.10
2022-08-03T13:01:09.817Z,3.20
2022-08-03T13:06:18.299Z,3.30
2022-08-03T13:11:22.832Z,3.30
2022-08-03T13:16:45.522Z,3.20
2022-08-03T13:22:01.918Z,3.00
2022-08-03T13:28:01.811Z,3.10
2022-08-03T13:32:30.847Z,3.00
2022-08-03T13:37:33.859Z,3.00
2022-08-03T13:42:38.813Z,3.00
2022-08-03T13:47:41.785Z,3.10
2022-08-03T13:52:46.545Z,3.00
2022-08-03T13:58:04.187Z,2.90
2022-08-03T14:03:14.450Z,3.30
2022-08-03T14:08:18.437Z,3.30
2022-08-03T14:13:22.560Z,2.90
2022-08-03T14:18:28.564Z,3.30
2022-08-03T14:23:39.818Z,2.90
2022-08-03T14:28:42.549Z,3.20
2022-08-03T14:33:45.373Z,3.30
2022-08-03T14:38:48.337Z,3.10
2022-08-03T14:44:02.226Z,2.80
2022-08-03T14:50:38.229Z,3.10
2022-08-03T14:54:31.070Z,3.20
2022-08-03T14:59:56.299Z,3.70
2022-08-03T15:04:56.883Z,3.00
2022-08-03T15:09:59.770Z,3.30
2022-08-03T15:15:06.186Z,3.40
2022-08-03T15:20:27.819Z,3.10
2022-08-03T15:26:28.122Z,3.80
2022-08-03T15:30:56.562Z,3.20
2022-08-03T15:36:00.470Z,3.20
2022-08-03T15:41:03.541Z,3.50
2022-08-03T15:46:28.898Z,3.90
2022-08-03T15:51:30.072Z,3.00
2022-08-03T15:56:32.785Z,3.50
2022-08-03T16:01:35.803Z,3.50
2022-08-03T16:06:38.698Z,3.50
2022-08-03T16:11:41.406Z,3.80
2022-08-03T16:16:44.160Z,3.30
2022-08-03T16:21:48.734Z,3.60
2022-08-03T16:26:52.753Z,3.30
2022-08-03T16:31:55.545Z,4.00
2022-08-03T16:36:58.316Z,4.50
2022-08-03T16:42:01.798Z,3.80
2022-08-03T16:47:04.883Z,3.80
2022-08-03T16:52:07.828Z,3.80
2022-08-03T16:57:10.592Z,3.60
2022-08-03T17:02:26.199Z,3.70
2022-08-03T17:07:29.779Z,4.00
2022-08-03T17:12:33.288Z,3.50
2022-08-03T17:17:37.568Z,3.40
2022-08-03T17:22:59.070Z,3.70
2022-08-03T17:28:50.814Z,3.60
2022-08-03T17:33:26.334Z,3.40
2022-08-03T17:38:40.394Z,4.10
2022-08-03T17:44:15.946Z,3.90
2022-08-03T17:49:24.513Z,3.60
2022-08-03T17:55:57.181Z,4.10
2022-08-03T18:00:36.346Z,3.70
2022-08-03T18:06:11.859Z,4.20
2022-08-03T18:11:16.319Z,4.50
2022-08-03T18:16:33.385Z,6.40
2022-08-03T18:22:04.031Z,4.70
2022-08-03T18:27:03.172Z,4.30
2022-08-03T18:32:13.263Z,4.60
2022-08-03T18:37:23.083Z,4.50
2022-08-03T18:42:27.784Z,4.70
2022-08-03T18:47:55.444Z,5.00
2022-08-03T18:54:02.274Z,5.20
2022-08-03T18:59:10.321Z,4.80
2022-08-03T19:04:15.366Z,5.20
2022-08-03T19:09:28.458Z,5.00
2022-08-03T19:14:39.241Z,5.50
2022-08-03T19:19:45.560Z,5.20
2022-08-03T19:24:52.918Z,6.20
2022-08-03T19:30:00.656Z,5.90
2022-08-03T19:40:32.931Z,31.30
2022-08-03T19:46:05.013Z,37.90
2022-08-03T19:51:12.093Z,32.20
2022-08-03T19:56:18.947Z,13.70
2022-08-03T20:01:22.940Z,10.20
2022-08-03T20:06:25.653Z,10.40
2022-08-03T20:11:29.044Z,11.80
2022-08-03T20:16:31.943Z,13.80
2022-08-03T20:21:35.476Z,16.30
2022-08-03T20:26:44.569Z,16.20
2022-08-03T20:31:47.793Z,11.50
2022-08-03T20:41:53.373Z,10.50
2022-08-03T20:47:00.785Z,10.90
2022-08-03T20:52:04.688Z,10.70
2022-08-03T20:57:21.290Z,10.00
2022-08-03T21:02:29.782Z,12.30
2022-08-03T21:08:06.299Z,11.70
2022-08-03T21:13:02.505Z,6.30
2022-08-03T21:13:39.500Z,12.60
2022-08-03T21:18:49.556Z,12.70
2022-08-03T21:23:54.308Z,10.90
2022-08-03T21:28:57.169Z,10.50
2022-08-03T21:34:02.542Z,11.00
2022-08-03T21:39:08.553Z,11.60
2022-08-03T21:44:11.417Z,10.20
2022-08-03T21:54:41.154Z,8.20
2022-08-03T21:59:53.097Z,7.50
2022-08-03T22:04:57.329Z,8.50
2022-08-03T22:10:02.547Z,8.70
2022-08-03T22:15:09.048Z,9.90
2022-08-03T22:20:16.852Z,9.80
2022-08-03T22:25:23.664Z,9.10
2022-08-03T22:30:27.304Z,9.80
2022-08-03T22:35:32.167Z,10.30
2022-08-03T22:40:51.049Z,10.40
2022-08-03T22:46:10.628Z,10.70
2022-08-03T22:51:15.979Z,10.50
2022-08-03T22:56:18.929Z,10.10
2022-08-03T23:06:27.009Z,10.30
2022-08-03T23:11:29.794Z,9.20
2022-08-03T23:16:38.160Z,9.50
2022-08-03T23:21:52.838Z,9.40
2022-08-03T23:27:04.410Z,10.10
2022-08-03T23:32:08.494Z,9.40
2022-08-03T23:37:13.710Z,8.00
2022-08-03T23:42:21.644Z,9.20
2022-08-03T23:47:25.161Z,10.00
2022-08-03T23:53:08.673Z,9.80
2022-08-03T23:58:34.521Z,10.30
